TimeCST,TemperatureF,Dew PointF,Humidity,Sea Level PressureIn,VisibilityMPH,Wind Direction,Wind SpeedMPH,Gust SpeedMPH,PrecipitationIn,Events,Conditions,WindDirDegrees,DateUTC
12:15 AM,37.4,24.6,60,29.79,10.0,NW,6.9,-,N/A,,Clear,310,2013-02-04 06:15:00
12:35 AM,39.4,26.1,59,29.79,10.0,NW,9.2,-,N/A,,Clear,310,2013-02-04 06:35:00
12:55 AM,40.6,25.9,56,29.79,10.0,NW,11.5,-,N/A,,Clear,320,2013-02-04 06:55:00
1:15 AM,39.0,25.7,59,29.80,10.0,NNW,15.0,-,N/A,,Clear,330,2013-02-04 07:15:00
1:35 AM,38.5,26.6,62,29.81,10.0,NNW,16.1,-,N/A,,Scattered Clouds,330,2013-02-04 07:35:00
1:55 AM,38.7,27.5,64,29.81,10.0,NNW,15.0,-,N/A,,Scattered Clouds,330,2013-02-04 07:55:00
2:15 AM,37.4,27.9,68,29.82,10.0,NNW,9.2,-,N/A,,Clear,340,2013-02-04 08:15:00
2:35 AM,36.0,28.4,74,29.84,10.0,North,12.7,-,N/A,,Clear,350,2013-02-04 08:35:00
2:55 AM,34.7,28.4,78,29.86,10.0,North,13.8,-,N/A,,Clear,360,2013-02-04 08:55:00
3:15 AM,33.4,27.9,80,29.86,10.0,North,11.5,-,N/A,,Clear,350,2013-02-04 09:15:00
4:55 AM,29.3,26.2,88,29.90,10.0,North,18.4,23.0,N/A,,Overcast,350,2013-02-04 10:55:00
5:15 AM,28.9,25.7,88,29.91,10.0,NNW,13.8,25.3,N/A,,Overcast,340,2013-02-04 11:15:00
5:35 AM,28.2,25.3,89,29.92,10.0,North,11.5,17.3,N/A,,Overcast,360,2013-02-04 11:35:00
5:55 AM,27.7,24.8,89,29.93,10.0,North,15.0,23.0,N/A,,Overcast,350,2013-02-04 11:55:00
6:15 AM,27.0,23.9,88,29.94,10.0,North,13.8,18.4,N/A,,Overcast,350,2013-02-04 12:15:00
6:35 AM,26.6,23.9,90,29.94,10.0,NNW,13.8,18.4,N/A,,Overcast,340,2013-02-04 12:35:00
6:55 AM,26.4,23.0,87,29.95,10.0,North,15.0,-,N/A,,Overcast,350,2013-02-04 12:55:00
7:15 AM,26.2,22.5,86,29.96,10.0,North,12.7,19.6,N/A,,Overcast,350,2013-02-04 13:15:00
7:35 AM,25.7,21.7,85,29.95,10.0,North,13.8,-,N/A,,Overcast,360,2013-02-04 13:35:00
7:55 AM,25.7,21.7,85,29.96,10.0,North,12.7,18.4,N/A,,Overcast,350,2013-02-04 13:55:00
8:15 AM,25.7,21.9,86,29.96,10.0,North,11.5,17.3,N/A,,Overcast,360,2013-02-04 14:15:00
8:35 AM,25.9,21.9,85,29.97,10.0,North,8.1,-,N/A,,Overcast,360,2013-02-04 14:35:00
8:55 AM,25.7,21.6,84,29.98,10.0,North,12.7,-,N/A,,Overcast,10,2013-02-04 14:55:00
9:15 AM,25.7,21.2,83,29.99,10.0,North,10.4,-,N/A,,Overcast,360,2013-02-04 15:15:00
9:35 AM,26.1,21.4,82,29.99,10.0,North,10.4,-,N/A,,Overcast,350,2013-02-04 15:35:00
9:55 AM,25.7,21.2,83,29.99,10.0,North,8.1,-,N/A,,Overcast,360,2013-02-04 15:55:00
10:15 AM,26.2,21.2,81,29.99,10.0,NNE,9.2,-,N/A,,Overcast,30,2013-02-04 16:15:00
10:35 AM,25.9,21.2,82,29.99,10.0,NNE,6.9,-,N/A,,Overcast,30,2013-02-04 16:35:00
10:55 AM,26.2,21.2,81,30.00,10.0,North,8.1,-,N/A,,Overcast,360,2013-02-04 16:55:00
11:15 AM,26.6,21.4,81,29.99,10.0,NNE,5.8,-,N/A,,Overcast,30,2013-02-04 17:15:00
11:35 AM,26.6,21.2,80,29.99,10.0,North,5.8,-,N/A,,Overcast,10,2013-02-04 17:35:00
11:55 AM,26.8,21.4,80,29.99,10.0,North,5.8,-,N/A,,Overcast,360,2013-02-04 17:55:00
12:15 PM,26.8,21.6,81,29.98,10.0,NNW,4.6,-,N/A,,Overcast,330,2013-02-04 18:15:00
12:35 PM,27.5,21.7,79,29.98,10.0,Calm,Calm,-,N/A,,Overcast,0,2013-02-04 18:35:00
12:55 PM,27.9,21.7,78,29.97,10.0,Calm,Calm,-,N/A,,Overcast,0,2013-02-04 18:55:00
1:15 PM,28.2,21.9,77,29.96,10.0,Calm,Calm,-,N/A,,Overcast,0,2013-02-04 19:15:00
1:35 PM,29.3,22.1,75,29.95,10.0,Calm,Calm,-,N/A,,Overcast,0,2013-02-04 19:35:00
1:55 PM,29.5,22.5,75,29.95,10.0,West,3.5,-,N/A,,Overcast,260,2013-02-04 19:55:00
2:15 PM,30.7,23.0,73,29.94,10.0,Calm,Calm,-,N/A,,Overcast,0,2013-02-04 20:15:00
2:35 PM,31.5,23.0,71,29.92,10.0,Calm,Calm,-,N/A,,Overcast,0,2013-02-04 20:35:00
2:55 PM,32.0,23.4,70,29.91,10.0,SSW,5.8,-,N/A,,Scattered Clouds,200,2013-02-04 20:55:00
3:15 PM,32.7,23.5,69,29.91,10.0,SSW,4.6,-,N/A,,Clear,200,2013-02-04 21:15:00
3:35 PM,33.6,23.7,67,29.90,10.0,SSW,5.8,-,N/A,,Clear,200,2013-02-04 21:35:00
3:55 PM,34.5,23.9,65,29.89,10.0,SSE,5.8,-,N/A,,Scattered Clouds,150,2013-02-04 21:55:00
4:15 PM,34.7,23.7,64,29.89,10.0,South,8.1,-,N/A,,Clear,170,2013-02-04 22:15:00
4:35 PM,33.3,23.4,67,29.88,10.0,South,4.6,-,N/A,,Clear,170,2013-02-04 22:35:00
4:55 PM,33.8,23.4,66,29.88,10.0,South,6.9,-,N/A,,Scattered Clouds,170,2013-02-04 22:55:00
5:15 PM,33.1,23.4,67,29.88,10.0,South,6.9,-,N/A,,Overcast,190,2013-02-04 23:15:00
5:35 PM,32.5,23.4,69,29.89,10.0,South,5.8,-,N/A,,Overcast,180,2013-02-04 23:35:00
6:15 PM,31.5,23.0,71,29.87,10.0,SSE,8.1,-,N/A,,Mostly Cloudy,160,2013-02-05 00:15:00
6:35 PM,30.6,22.6,72,29.87,10.0,SSE,8.1,-,N/A,,Mostly Cloudy,160,2013-02-05 00:35:00
6:55 PM,30.7,23.0,73,29.86,10.0,SSE,9.2,-,N/A,,Scattered Clouds,160,2013-02-05 00:55:00
7:15 PM,31.1,23.0,72,29.86,10.0,SSE,6.9,-,N/A,,Scattered Clouds,150,2013-02-05 01:15:00
7:35 PM,30.7,23.2,74,29.85,10.0,SSE,8.1,-,N/A,,Clear,160,2013-02-05 01:35:00
7:55 PM,30.7,23.5,75,29.84,10.0,South,10.4,-,N/A,,Clear,170,2013-02-05 01:55:00
8:15 PM,30.7,23.9,76,29.83,10.0,South,8.1,-,N/A,,Scattered Clouds,170,2013-02-05 02:15:00
8:35 PM,30.9,24.8,78,29.83,10.0,South,8.1,-,N/A,,Mostly Cloudy,170,2013-02-05 02:35:00
8:55 PM,31.1,25.5,80,29.83,10.0,South,5.8,-,N/A,,Overcast,170,2013-02-05 02:55:00
9:15 PM,31.1,25.9,81,29.83,10.0,South,5.8,-,N/A,,Overcast,170,2013-02-05 03:15:00
9:35 PM,31.1,26.1,82,29.83,10.0,South,4.6,-,N/A,,Overcast,190,2013-02-05 03:35:00
9:55 PM,31.1,26.4,83,29.86,10.0,NNW,5.8,-,N/A,,Overcast,330,2013-02-05 03:55:00
10:15 PM,31.5,26.4,82,29.84,10.0,SW,4.6,-,N/A,,Overcast,220,2013-02-05 04:15:00
10:35 PM,31.8,26.6,81,29.83,10.0,SSW,6.9,-,N/A,,Overcast,210,2013-02-05 04:35:00
10:55 PM,32.0,27.0,82,29.84,10.0,South,3.5,-,N/A,,Overcast,190,2013-02-05 04:55:00
11:15 PM,31.8,27.0,82,29.83,10.0,Calm,Calm,-,N/A,,Overcast,0,2013-02-05 05:15:00
11:35 PM,32.0,27.0,82,29.83,10.0,Calm,Calm,-,N/A,,Overcast,0,2013-02-05 05:35:00
11:55 PM,31.8,27.1,83,29.82,10.0,South,4.6,-,N/A,,Overcast,190,2013-02-05 05:55:00